Time;durP1;ratioP1;P1;durP2;ratioP2;P2;SDS_P1;SDS_P2;PMS_P1;PMS_P2;Temp;Humidity;BMP_temperature;BMP_pressure;BME280_temperature;BME280_humidity;BME280_pressure;Samples;Min_cycle;Max_cycle;Signal;HPM_P1;HPM_P2
2022/07/11 00:01:35;;;;;;;4.38;2.13;;;;;;;16.44;58.66;94797.69;5093192;28;20035;-73
2022/07/11 00:04:00;;;;;;;3.78;1.95;;;;;;;16.41;58.49;94798.00;5110007;28;20506;-73
2022/07/11 00:06:25;;;;;;;2.97;2.20;;;;;;;16.37;58.46;94803.72;5110103;28;20394;-73
2022/07/11 00:08:51;;;;;;;2.78;1.75;;;;;;;16.40;58.00;94795.53;5111254;28;20039;-73
2022/07/11 00:11:16;;;;;;;6.18;1.90;;;;;;;16.30;57.13;94793.91;5110268;28;20084;-73
2022/07/11 00:13:42;;;;;;;2.53;1.80;;;;;;;16.32;57.24;94806.81;5092945;28;20428;-73
2022/07/11 00:16:07;;;;;;;3.67;1.88;;;;;;;16.28;58.43;94798.47;5109928;28;20028;-73
2022/07/11 00:18:33;;;;;;;3.25;1.73;;;;;;;16.17;58.90;94803.22;5092866;28;20028;-73
2022/07/11 00:20:58;;;;;;;2.50;1.65;;;;;;;16.22;59.03;94811.41;5109920;28;20028;-73
2022/07/11 00:23:23;;;;;;;2.97;2.10;;;;;;;16.13;58.68;94809.75;5111203;28;20028;-73
2022/07/11 00:25:49;;;;;;;2.53;1.90;;;;;;;16.15;59.23;94815.66;5110318;28;20039;-73
2022/07/11 00:28:14;;;;;;;4.05;1.80;;;;;;;16.10;58.39;94810.88;5115340;27;20077;-73
2022/07/11 00:30:40;;;;;;;4.53;1.80;;;;;;;16.12;58.93;94815.97;5097188;28;20039;-73
2022/07/11 00:33:05;;;;;;;2.85;1.67;;;;;;;16.09;57.88;94811.88;5115244;28;20035;-73
2022/07/11 00:35:31;;;;;;;2.20;1.70;;;;;;;16.10;57.67;94816.13;5097112;28;20448;-73
2022/07/11 00:37:56;;;;;;;2.00;1.58;;;;;;;16.11;57.25;94815.16;5113930;28;20024;-73
2022/07/11 00:40:22;;;;;;;2.53;1.65;;;;;;;16.18;57.09;94816.13;5115416;28;20027;-73
2022/07/11 00:42:47;;;;;;;4.15;1.70;;;;;;;16.14;55.95;94809.59;5113722;28;20038;-73
2022/07/11 00:45:13;;;;;;;2.30;1.60;;;;;;;16.17;56.00;94816.31;5113791;28;20038;-73
2022/07/11 00:47:38;;;;;;;4.20;1.67;;;;;;;16.18;55.46;94810.09;5115026;28;20485;-73
2022/07/11 00:50:04;;;;;;;3.75;1.67;;;;;;;16.28;55.23;94821.25;5113383;28;20039;-73
2022/07/11 00:52:30;;;;;;;2.60;1.67;;;;;;;16.35;56.47;94821.41;5096585;28;20046;-73
2022/07/11 00:54:55;;;;;;;3.72;1.70;;;;;;;16.32;56.24;94817.31;5096624;28;20032;-73
2022/07/11 00:57:21;;;;;;;2.88;1.60;;;;;;;16.34;56.06;94814.53;5096573;28;20038;-73
2022/07/11 00:59:46;;;;;;;4.43;1.80;;;;;;;16.26;55.95;94808.28;5079702;28;20417;-73
2022/07/11 01:02:12;;;;;;;2.00;1.50;;;;;;;16.40;55.22;94821.75;5113537;28;20024;-73
2022/07/11 01:04:37;;;;;;;2.55;1.63;;;;;;;16.38;55.07;94827.16;5096356;28;20477;-73
2022/07/11 01:07:03;;;;;;;2.42;1.80;;;;;;;16.40;55.21;94814.69;5096354;28;20418;-73
2022/07/11 01:09:28;;;;;;;3.35;1.85;;;;;;;16.43;55.28;94824.84;5114801;28;20023;-73
2022/07/11 01:11:54;;;;;;;3.35;1.83;;;;;;;16.47;56.21;94815.69;5096196;28;20035;-73
2022/07/11 01:14:19;;;;;;;2.17;1.73;;;;;;;16.41;55.74;94816.34;5113116;28;20035;-73
2022/07/11 01:16:45;;;;;;;2.78;1.90;;;;;;;16.48;55.69;94824.38;5096214;28;20031;-73
2022/07/11 01:19:10;;;;;;;3.03;1.80;;;;;;;16.49;55.69;94818.97;5113085;28;20043;-73
2022/07/11 01:21:39;;;;;;;4.95;1.50;;;;;;;16.30;56.20;94808.81;5113018;28;20471;-73
2022/07/11 01:24:05;;;;;;;3.67;1.70;;;;;;;16.25;56.85;94808.47;5112973;28;20036;-73
2022/07/11 01:26:32;;;;;;;3.00;1.70;;;;;;;16.27;57.85;94819.63;5113012;28;20067;-73
2022/07/11 01:29:08;;;;;;;3.55;1.90;;;;;;;16.22;56.29;94816.66;5112679;28;20496;-73
2022/07/11 01:31:33;;;;;;;2.88;1.90;;;;;;;16.05;58.10;94811.38;5096512;28;20467;-73
2022/07/11 01:33:59;;;;;;;2.20;1.73;;;;;;;16.05;58.43;94816.63;5112691;28;20089;-73
2022/07/11 01:36:24;;;;;;;5.00;2.00;;;;;;;15.96;58.84;94801.84;5078902;28;20413;-73
2022/07/11 01:38:50;;;;;;;3.08;1.90;;;;;;;15.86;58.31;94788.09;5111483;28;20047;-73
2022/07/11 01:41:15;;;;;;;3.15;1.98;;;;;;;15.80;58.15;94791.34;5113871;28;20031;-73
2022/07/11 01:43:41;;;;;;;3.72;1.95;;;;;;;15.73;59.74;94809.47;5095646;28;20031;-73
2022/07/11 01:46:06;;;;;;;3.20;2.00;;;;;;;15.55;60.51;94804.31;5112439;28;20585;-73
2022/07/11 01:48:32;;;;;;;4.00;1.80;;;;;;;15.47;61.34;94817.38;5113738;28;20019;-73
2022/07/11 01:50:57;;;;;;;3.65;1.65;;;;;;;15.40;61.35;94811.09;5113715;28;20047;-73
2022/07/11 01:53:23;;;;;;;3.25;1.80;;;;;;;15.29;61.03;94806.16;5078492;28;20039;-73
2022/07/11 01:55:48;;;;;;;3.63;1.90;;;;;;;15.25;61.51;94823.97;5114029;28;20032;-73
2022/07/11 01:58:14;;;;;;;2.45;1.90;;;;;;;15.20;62.23;94829.66;5112420;28;20024;-73
2022/07/11 02:00:39;;;;;;;3.45;1.92;;;;;;;15.11;62.16;94822.75;5113850;28;20035;-73
2022/07/11 02:03:05;;;;;;;3.42;1.92;;;;;;;14.93;62.83;94830.66;5112257;28;20027;-73
2022/07/11 02:05:30;;;;;;;2.90;1.67;;;;;;;14.83;63.43;94834.34;5095296;28;20234;-73
2022/07/11 02:08:14;;;;;;;2.95;1.83;;;;;;;14.83;62.22;94834.34;5112171;28;20031;-73
2022/07/11 02:10:49;;;;;;;3.13;2.00;;;;;;;14.65;62.98;94840.38;5112485;28;20043;-73
2022/07/11 02:13:16;;;;;;;4.57;1.60;;;;;;;14.56;63.89;94833.47;5113206;28;20476;-73
2022/07/11 02:15:42;;;;;;;2.88;1.80;;;;;;;14.58;63.09;94841.16;5078456;28;20404;-73
2022/07/11 02:18:07;;;;;;;3.45;1.80;;;;;;;14.51;63.86;94839.13;5112004;28;20028;-73
2022/07/11 02:20:33;;;;;;;2.20;1.63;;;;;;;14.46;63.63;94837.94;5112117;28;20496;-72
2022/07/11 02:22:59;;;;;;;3.53;1.60;;;;;;;14.54;62.50;94843.22;5094994;28;20027;-74
2022/07/11 02:25:24;;;;;;;2.40;1.75;;;;;;;14.52;61.01;94842.59;5112000;28;20558;-73
2022/07/11 02:27:51;;;;;;;2.10;1.77;;;;;;;14.56;61.76;94843.91;5112991;28;20038;-73
2022/07/11 02:30:16;;;;;;;3.00;2.00;;;;;;;14.60;61.74;94849.66;5111924;28;20034;-73
2022/07/11 02:32:42;;;;;;;3.17;1.58;;;;;;;14.63;62.07;94847.59;5112909;28;20037;-73
2022/07/11 02:35:08;;;;;;;2.40;1.55;;;;;;;14.64;62.07;94846.59;5111740;28;20132;-73
2022/07/11 02:37:33;;;;;;;3.75;2.05;;;;;;;14.73;61.19;94855.31;5111569;28;20100;-73
2022/07/11 02:39:59;;;;;;;2.30;1.48;;;;;;;14.68;62.27;94855.78;5111571;28;20505;-73
2022/07/11 02:42:24;;;;;;;3.10;1.73;;;;;;;14.71;62.33;94852.06;5112703;28;20028;-73
2022/07/11 02:44:50;;;;;;;3.03;1.50;;;;;;;14.72;62.94;94854.50;5111484;28;20039;-73
2022/07/11 02:47:15;;;;;;;3.58;1.83;;;;;;;14.70;62.32;94861.69;5094443;28;20489;-73
2022/07/11 02:49:41;;;;;;;2.63;1.70;;;;;;;14.72;62.68;94858.91;5110886;28;20509;-72
2022/07/11 02:52:07;;;;;;;3.85;1.70;;;;;;;14.60;62.26;94854.88;5111262;28;20557;-72
2022/07/11 02:54:32;;;;;;;4.95;1.65;;;;;;;14.59;63.10;94863.72;5112326;27;20039;-73
2022/07/11 02:56:58;;;;;;;2.38;1.67;;;;;;;14.51;62.26;94862.66;5094130;28;20019;-73
2022/07/11 02:59:23;;;;;;;2.33;1.67;;;;;;;14.55;61.61;94857.97;5111165;28;20043;-73
2022/07/11 03:01:49;;;;;;;4.18;1.95;;;;;;;14.52;62.61;94861.69;5111078;28;20027;-73
2022/07/11 03:04:15;;;;;;;4.00;1.67;;;;;;;14.56;62.40;94870.06;5111122;28;20550;-73
2022/07/11 03:06:40;;;;;;;3.03;1.65;;;;;;;14.53;62.95;94865.13;5111152;28;20023;-72
2022/07/11 03:09:07;;;;;;;4.75;1.63;;;;;;;14.52;63.38;94873.94;5093909;28;20040;-73
2022/07/11 03:11:33;;;;;;;2.67;1.70;;;;;;;14.55;63.15;94878.06;5093871;28;20020;-73
2022/07/11 03:13:58;;;;;;;3.38;1.75;;;;;;;14.52;64.07;94873.94;5076703;28;20074;-73
2022/07/11 03:16:24;;;;;;;4.35;1.63;;;;;;;14.48;63.22;94877.78;5093977;28;20023;-73
2022/07/11 03:18:50;;;;;;;2.42;1.85;;;;;;;14.51;63.12;94880.94;5110778;28;20072;-73
2022/07/11 03:21:15;;;;;;;2.38;1.60;;;;;;;14.52;62.24;94879.19;5093742;28;20040;-73
2022/07/11 03:23:41;;;;;;;3.60;1.90;;;;;;;14.61;63.13;94888.72;5093750;28;20061;-73
2022/07/11 03:26:06;;;;;;;1.95;1.60;;;;;;;14.61;63.55;94885.31;5110554;28;20024;-73
2022/07/11 03:28:31;;;;;;;4.07;1.80;;;;;;;14.58;62.67;94888.22;5110845;28;20072;-73
2022/07/11 03:30:57;;;;;;;3.40;1.70;;;;;;;14.57;62.33;94887.41;5110533;28;20076;-74
2022/07/11 03:33:22;;;;;;;2.83;2.38;;;;;;;14.60;63.88;94881.88;5110535;28;20032;-73
2022/07/11 03:35:48;;;;;;;3.25;1.70;;;;;;;14.58;64.00;94883.81;5110536;28;20558;-73
2022/07/11 03:38:17;;;;;;;2.83;1.70;;;;;;;14.63;64.42;94884.19;5110567;28;20485;-73
2022/07/11 03:40:43;;;;;;;4.22;1.95;;;;;;;14.70;64.82;94887.81;5077112;28;20028;-73
2022/07/11 03:43:09;;;;;;;3.95;1.80;;;;;;;14.72;64.66;94885.06;5111587;28;20042;-73
2022/07/11 03:45:34;;;;;;;4.05;1.63;;;;;;;14.81;64.11;94884.16;5093519;28;20039;-73
2022/07/11 03:48:00;;;;;;;2.03;1.58;;;;;;;14.88;64.03;94894.84;5093384;28;20023;-73
2022/07/11 03:50:25;;;;;;;3.78;1.70;;;;;;;14.84;65.39;94888.25;5076343;28;20089;-73
2022/07/11 03:52:51;;;;;;;2.25;1.80;;;;;;;14.91;63.42;94889.31;5093181;28;20031;-73
2022/07/11 03:55:16;;;;;;;3.63;1.58;;;;;;;15.03;63.93;94903.78;5076705;28;20035;-73
2022/07/11 03:57:42;;;;;;;5.95;2.38;;;;;;;15.10;63.33;94910.06;5111486;28;20621;-73
2022/07/11 04:00:08;;;;;;;3.67;1.70;;;;;;;15.10;64.94;94904.84;5092900;28;20570;-73
2022/07/11 04:02:34;;;;;;;3.85;1.80;;;;;;;15.17;65.20;94915.50;5109826;28;20035;-73
2022/07/11 04:05:00;;;;;;;4.13;1.73;;;;;;;15.16;62.51;94900.78;5093218;28;20031;-73
2022/07/11 04:07:28;;;;;;;5.47;2.00;;;;;;;15.18;62.18;94901.44;5111372;28;20024;-73
2022/07/11 04:09:54;;;;;;;3.28;1.73;;;;;;;15.53;61.55;94911.00;5093496;28;20032;-73
2022/07/11 04:12:19;;;;;;;5.28;2.00;;;;;;;15.68;61.60;94934.81;5110001;28;20042;-74
2022/07/11 04:14:44;;;;;;;2.85;1.67;;;;;;;16.67;57.28;94915.03;5110153;28;20481;-73
2022/07/11 04:17:10;;;;;;;2.75;1.90;;;;;;;17.70;53.39;94923.22;5110064;28;20527;-73
2022/07/11 04:19:35;;;;;;;2.50;1.80;;;;;;;18.56;50.97;94918.97;5111388;28;20111;-73
2022/07/11 04:22:01;;;;;;;2.95;1.80;;;;;;;19.44;48.17;94925.53;5111087;28;20027;-74
2022/07/11 04:24:26;;;;;;;3.75;1.77;;;;;;;20.17;45.86;94920.53;5093053;28;20020;-73
2022/07/11 04:26:52;;;;;;;4.05;1.75;;;;;;;21.15;44.01;94927.94;5109953;28;20031;-73
2022/07/11 04:29:17;;;;;;;3.08;1.80;;;;;;;21.89;42.04;94925.88;5092939;28;20032;-74
2022/07/11 04:31:43;;;;;;;3.13;1.70;;;;;;;22.68;40.14;94931.56;5109920;28;20020;-73
2022/07/11 04:34:08;;;;;;;4.85;1.60;;;;;;;23.26;39.03;94924.97;5111018;28;20400;-74
2022/07/11 04:36:34;;;;;;;6.07;1.63;;;;;;;23.77;37.99;94927.88;5109918;28;20400;-74
2022/07/11 04:38:59;;;;;;;3.08;1.60;;;;;;;23.20;39.16;94932.72;5110950;28;20096;-74
2022/07/11 04:41:25;;;;;;;3.75;1.95;;;;;;;24.24;37.53;94927.78;5109814;28;20069;-74
2022/07/11 04:43:50;;;;;;;3.67;1.52;;;;;;;24.74;35.30;94917.41;5109778;28;20513;-73
2022/07/11 04:46:15;;;;;;;2.47;1.60;;;;;;;25.29;34.51;94927.50;5110923;28;20027;-74
2022/07/11 04:48:41;;;;;;;2.78;1.83;;;;;;;25.80;34.03;94927.28;5110937;28;20486;-74
2022/07/11 04:51:06;;;;;;;3.75;1.70;;;;;;;25.01;34.98;94915.38;5109695;28;20059;-71
2022/07/11 04:53:33;;;;;;;3.88;2.03;;;;;;;23.95;36.10;94918.44;5109813;28;20031;-72
2022/07/11 04:55:58;;;;;;;3.55;1.80;;;;;;;23.20;38.51;94918.66;5092732;28;20032;-72
2022/07/11 04:58:24;;;;;;;2.72;1.77;;;;;;;22.82;39.17;94931.63;5109554;28;20058;-71
2022/07/11 05:00:49;;;;;;;5.18;2.30;;;;;;;22.32;39.99;94923.09;5109705;28;20473;-73
2022/07/11 05:03:15;;;;;;;3.75;1.70;;;;;;;22.01;41.02;94932.28;5109594;28;20039;-73
2022/07/11 05:05:40;;;;;;;3.22;1.63;;;;;;;21.67;42.18;94936.50;5109724;28;20032;-73
2022/07/11 05:08:06;;;;;;;5.00;1.92;;;;;;;21.25;42.25;94932.06;5092614;28;20032;-73
2022/07/11 05:10:33;;;;;;;2.88;1.70;;;;;;;20.91;42.50;94936.22;5111101;28;20432;-73
2022/07/11 05:12:59;;;;;;;5.32;1.70;;;;;;;20.71;43.70;94936.84;5111861;28;20035;-73
2022/07/11 05:15:24;;;;;;;4.75;1.77;;;;;;;20.49;44.29;94922.75;5114701;28;20024;-73
2022/07/11 05:17:50;;;;;;;3.25;2.10;;;;;;;20.37;44.80;94944.53;5113219;28;20023;-73
2022/07/11 05:20:15;;;;;;;2.45;1.67;;;;;;;20.26;45.06;94943.19;5114652;28;20081;-73
2022/07/11 05:22:41;;;;;;;3.03;1.77;;;;;;;20.18;46.05;94935.38;5113177;28;20030;-73
2022/07/11 05:25:06;;;;;;;3.55;2.17;;;;;;;20.21;46.32;94940.28;5113061;28;20035;-73
2022/07/11 05:27:32;;;;;;;3.22;1.85;;;;;;;20.15;46.03;94933.09;5096072;28;20031;-73
2022/07/11 05:29:57;;;;;;;4.10;2.03;;;;;;;20.06;45.54;94943.72;5112757;28;20038;-74
2022/07/11 05:32:23;;;;;;;3.83;2.00;;;;;;;19.76;45.42;94953.44;5114060;28;20497;-73
2022/07/11 05:34:48;;;;;;;4.25;1.95;;;;;;;19.56;46.13;94945.22;5112852;28;20039;-73
2022/07/11 05:37:14;;;;;;;3.45;1.95;;;;;;;19.41;46.25;94955.69;5114064;28;20062;-73
2022/07/11 05:39:39;;;;;;;3.05;1.70;;;;;;;19.51;46.12;94944.91;5112715;28;20084;-73
2022/07/11 05:42:05;;;;;;;5.40;2.00;;;;;;;19.57;46.29;94949.47;5095606;28;20031;-73
2022/07/11 05:44:30;;;;;;;3.15;1.70;;;;;;;19.66;46.41;94941.53;5095641;28;20036;-73
2022/07/11 05:47:02;;;;;;;3.28;1.80;;;;;;;19.73;44.09;94955.63;5095648;28;20030;-73
2022/07/11 05:49:28;;;;;;;7.95;1.70;;;;;;;19.74;43.76;94947.53;5112338;28;20505;-73
2022/07/11 05:51:53;;;;;;;3.08;1.80;;;;;;;19.94;44.07;94955.72;5113676;28;20039;-73
2022/07/11 05:54:18;;;;;;;3.50;1.35;;;;;;;19.75;39.87;94950.97;5113466;28;20035;-73
2022/07/11 05:56:44;;;;;;;2.58;1.33;;;;;;;19.62;40.96;94951.56;5095502;28;20125;-73
2022/07/11 05:59:09;;;;;;;2.45;1.50;;;;;;;19.61;41.18;94961.31;5113479;28;20092;-73
2022/07/11 06:01:35;;;;;;;4.18;1.63;;;;;;;19.68;41.94;94947.44;5112425;28;20030;-73
2022/07/11 06:04:01;;;;;;;3.17;1.50;;;;;;;19.68;41.88;94966.69;5112181;28;20035;-73
2022/07/11 06:06:26;;;;;;;3.28;1.55;;;;;;;19.71;40.52;94949.72;5112337;28;20458;-73
2022/07/11 06:08:53;;;;;;;1.80;1.23;;;;;;;19.78;40.89;94971.69;5095389;28;20110;-74
2022/07/11 06:11:19;;;;;;;2.42;1.40;;;;;;;19.84;41.45;94961.28;5112127;28;20028;-74
2022/07/11 06:13:50;;;;;;;2.10;1.20;;;;;;;19.96;38.67;94969.53;5112025;28;20508;-73
2022/07/11 06:16:15;;;;;;;2.72;1.30;;;;;;;19.90;37.87;94980.81;5079788;28;20192;-73
2022/07/11 06:18:41;;;;;;;3.35;1.10;;;;;;;19.91;37.32;94966.63;5095319;28;20524;-73
2022/07/11 06:21:07;;;;;;;2.05;1.10;;;;;;;20.12;36.36;94973.00;5111822;28;20500;-73
2022/07/11 06:23:34;;;;;;;2.70;1.00;;;;;;;20.15;36.64;94972.66;5094151;28;20141;-74
2022/07/11 06:25:59;;;;;;;2.97;1.25;;;;;;;20.23;36.42;94975.19;5095147;28;20148;-73
2022/07/11 06:28:25;;;;;;;3.80;1.58;;;;;;;20.30;36.35;94961.06;5111873;28;20024;-73
2022/07/11 06:30:50;;;;;;;2.88;1.10;;;;;;;20.48;36.06;94963.34;5111579;28;20043;-73
2022/07/11 06:33:17;;;;;;;2.78;1.20;;;;;;;20.48;35.00;94963.34;5111573;28;20024;-73
2022/07/11 06:35:42;;;;;;;2.35;1.08;;;;;;;20.55;35.84;94954.72;5113307;28;20032;-73
2022/07/11 06:38:08;;;;;;;5.13;1.15;;;;;;;20.76;36.15;94962.69;5094730;28;20082;-73
2022/07/11 06:40:33;;;;;;;1.80;0.80;;;;;;;20.93;36.14;94963.28;5094646;28;20028;-73
2022/07/11 06:42:59;;;;;;;3.22;0.93;;;;;;;21.12;36.18;94961.84;5112788;28;20102;-73
2022/07/11 06:45:24;;;;;;;3.13;1.10;;;;;;;21.23;35.32;94961.34;5112543;28;20036;-73
2022/07/11 06:47:50;;;;;;;4.20;0.90;;;;;;;21.32;34.41;94960.19;5111440;28;20019;-73
2022/07/11 06:50:15;;;;;;;4.00;0.93;;;;;;;21.14;32.47;94965.91;5094294;28;20059;-73
2022/07/11 06:52:41;;;;;;;2.45;0.93;;;;;;;21.14;33.74;94951.88;5094199;28;20034;-73
2022/07/11 06:55:07;;;;;;;2.85;1.10;;;;;;;21.26;33.50;94960.16;5077424;28;20047;-73
2022/07/11 06:57:32;;;;;;;2.00;0.90;;;;;;;21.28;32.23;94951.00;5094595;28;20034;-74
2022/07/11 06:59:58;;;;;;;1.75;1.00;;;;;;;21.24;33.63;94956.88;5077125;28;20161;-74
2022/07/11 07:02:27;;;;;;;2.28;1.10;;;;;;;21.22;33.73;94959.69;5112417;28;20494;-73
2022/07/11 07:04:53;;;;;;;1.65;0.98;;;;;;;21.45;34.07;94966.63;5111028;28;20039;-73
2022/07/11 07:07:19;;;;;;;2.25;1.00;;;;;;;21.48;33.21;94958.31;5111333;28;20393;-73
2022/07/11 07:09:44;;;;;;;2.70;0.80;;;;;;;21.45;32.89;94962.16;5077094;28;20470;-73
2022/07/11 07:12:10;;;;;;;3.95;1.05;;;;;;;21.51;32.81;94963.22;5111312;28;20023;-73
2022/07/11 07:14:36;;;;;;;2.28;1.23;;;;;;;21.57;33.17;94957.19;5094039;28;20035;-73
2022/07/11 07:17:01;;;;;;;2.00;1.20;;;;;;;21.64;33.82;94945.63;5112063;28;20514;-73
2022/07/11 07:19:27;;;;;;;2.60;1.00;;;;;;;21.77;32.14;94949.41;5112123;28;20389;-73
2022/07/11 07:21:52;;;;;;;2.60;1.20;;;;;;;21.84;32.78;94951.09;5110795;28;20097;-73
2022/07/11 07:24:18;;;;;;;2.55;1.00;;;;;;;21.93;32.48;94957.03;5093729;28;20023;-74
2022/07/11 07:26:43;;;;;;;3.15;1.48;;;;;;;22.00;31.67;94951.78;5110714;28;20024;-73
2022/07/11 07:29:09;;;;;;;3.45;1.52;;;;;;;22.03;32.37;94933.69;5093858;28;20040;-73
2022/07/11 07:31:34;;;;;;;2.38;1.17;;;;;;;22.17;32.22;94931.94;5110641;28;20463;-73
2022/07/11 07:33:59;;;;;;;2.35;1.00;;;;;;;22.21;31.30;94930.56;5111618;28;20040;-73
2022/07/11 07:36:25;;;;;;;1.60;0.90;;;;;;;22.21;32.08;94921.81;5109680;28;20024;-73
2022/07/11 07:38:50;;;;;;;4.18;1.10;;;;;;;22.30;33.43;94926.75;5110584;28;20051;-73
2022/07/11 07:41:16;;;;;;;3.88;1.10;;;;;;;22.39;33.13;94935.31;5111698;27;20019;-73
2022/07/11 07:43:42;;;;;;;1.95;1.00;;;;;;;22.30;33.04;94910.84;5093537;28;20036;-73
2022/07/11 07:46:11;;;;;;;3.65;0.93;;;;;;;22.30;32.41;94918.78;5111526;28;20030;-73
2022/07/11 07:48:37;;;;;;;2.08;1.00;;;;;;;22.39;33.48;94921.28;5093839;28;20032;-73
2022/07/11 07:51:03;;;;;;;6.88;1.60;;;;;;;22.39;33.31;94922.09;5110346;28;20051;-74
2022/07/11 07:53:29;;;;;;;3.17;1.55;;;;;;;22.29;33.19;94919.00;5110147;28;20035;-74
2022/07/11 07:55:54;;;;;;;3.70;1.42;;;;;;;22.17;33.45;94929.28;5111925;28;20088;-73
2022/07/11 07:58:20;;;;;;;3.45;1.35;;;;;;;22.00;33.48;94920.03;5093346;28;20055;-74
2022/07/11 08:03:30;;;;;;;4.80;1.10;;;;;;;21.93;33.70;94922.66;5111715;28;20076;-73
2022/07/11 08:05:56;;;;;;;4.15;1.00;;;;;;;21.92;33.93;94936.88;5110076;28;20027;-73
2022/07/11 08:08:21;;;;;;;2.33;0.80;;;;;;;21.91;34.32;94935.25;5093244;28;20417;-73
2022/07/11 08:10:47;;;;;;;5.00;1.20;;;;;;;21.98;34.47;94932.63;5110200;28;20058;-74
2022/07/11 08:13:12;;;;;;;1.67;0.80;;;;;;;21.93;33.16;94948.28;5092997;28;20023;-74
2022/07/11 08:15:38;;;;;;;3.30;1.00;;;;;;;21.90;33.20;94946.84;5093238;28;20413;-74
2022/07/11 08:18:03;;;;;;;2.70;1.00;;;;;;;21.80;33.88;94947.16;5111241;28;20020;-74
2022/07/11 08:20:29;;;;;;;2.38;1.20;;;;;;;21.88;33.99;94942.75;5111496;28;20050;-74
2022/07/11 08:22:59;;;;;;;4.50;1.00;;;;;;;21.98;34.39;94945.84;5111203;28;20019;-73
2022/07/11 08:25:25;;;;;;;5.43;1.13;;;;;;;22.02;34.02;94934.69;5076321;28;20039;-73
2022/07/11 08:27:50;;;;;;;8.13;1.30;;;;;;;22.02;33.44;94924.13;5109969;28;20432;-73
2022/07/11 08:30:16;;;;;;;2.88;1.13;;;;;;;22.11;33.88;94948.59;5076156;28;20386;-73
2022/07/11 08:32:41;;;;;;;4.22;1.00;;;;;;;22.06;33.32;94930.69;5111102;28;20024;-73
2022/07/11 08:35:07;;;;;;;5.55;1.33;;;;;;;22.19;34.50;94937.06;5092902;28;20031;-73
2022/07/11 08:37:33;;;;;;;2.28;1.10;;;;;;;22.35;33.80;94942.03;5092960;28;20031;-73
2022/07/11 08:59:58;;;;;;;3.30;0.93;;;;;;;22.54;32.61;94953.72;5088252;27;20384;-77
2022/07/11 09:02:23;;;;;;;2.38;0.70;;;;;;;22.47;32.60;94943.09;5087237;28;20032;-77
2022/07/11 09:04:49;;;;;;;3.08;1.08;;;;;;;22.45;31.84;94947.75;5087047;28;20505;-77
2022/07/11 09:07:14;;;;;;;3.35;1.00;;;;;;;22.29;31.79;94956.06;5086838;28;20405;-77
2022/07/11 09:09:40;;;;;;;2.58;1.20;;;;;;;22.19;32.16;94952.94;5086828;28;20597;-77
2022/07/11 09:12:12;;;;;;;4.50;0.90;;;;;;;22.07;32.75;94944.72;5069985;28;20028;-77
2022/07/11 09:14:38;;;;;;;4.13;0.93;;;;;;;22.08;32.83;94943.69;5086692;28;20040;-77
2022/07/11 09:17:04;;;;;;;2.97;1.00;;;;;;;22.09;32.28;94945.31;5069821;28;20408;-77
2022/07/11 09:19:31;;;;;;;1.90;0.93;;;;;;;22.23;31.65;94956.81;5070008;28;20038;-78
2022/07/11 09:28:07;;;;;;;5.78;1.00;;;;;;;22.31;33.28;94948.72;5073485;28;20097;-77
2022/07/11 09:30:40;;;;;;;1.98;0.88;;;;;;;22.31;32.33;94959.28;5086579;28;20498;-77
2022/07/11 09:33:06;;;;;;;1.48;0.82;;;;;;;22.44;33.23;94958.56;5070175;28;20040;-77
2022/07/11 09:35:32;;;;;;;1.67;0.90;;;;;;;22.31;32.58;94959.28;5069662;28;20039;-77
2022/07/11 09:37:58;;;;;;;2.38;1.00;;;;;;;22.34;33.56;94955.44;5087646;28;20024;-78
2022/07/11 09:40:25;;;;;;;2.63;1.00;;;;;;;22.32;33.19;94954.84;5069468;28;20489;-78
2022/07/11 09:42:55;;;;;;;3.55;1.00;;;;;;;22.40;30.84;94958.16;5053194;28;20035;-78
2022/07/11 09:45:27;;;;;;;5.25;1.20;;;;;;;22.40;32.94;94970.53;5052991;28;20047;-78
2022/07/11 09:47:57;;;;;;;2.47;0.80;;;;;;;22.27;31.66;94961.53;5070133;28;20032;-77
2022/07/11 09:50:25;;;;;;;1.30;0.68;;;;;;;22.32;31.82;94954.84;5086072;28;20116;-77
2022/07/11 09:53:02;;;;;;;1.88;0.95;;;;;;;22.20;31.75;94950.06;5086084;28;20491;-77
2022/07/11 09:55:28;;;;;;;3.55;1.02;;;;;;;22.31;30.36;94964.59;5052680;28;20181;-77
2022/07/11 09:57:54;;;;;;;3.42;0.90;;;;;;;22.18;31.69;94981.22;5068987;28;20070;-78
2022/07/11 10:00:19;;;;;;;2.10;0.90;;;;;;;22.03;32.26;94965.41;5058793;28;20502;-77
2022/07/11 10:02:45;;;;;;;3.58;1.02;;;;;;;22.08;32.43;94968.31;5039051;28;20040;-77
2022/07/11 10:05:10;;;;;;;2.20;1.17;;;;;;;21.98;32.53;94964.38;5055733;28;20031;-78
2022/07/11 10:07:36;;;;;;;1.30;0.77;;;;;;;22.14;33.19;94966.72;5073390;28;20036;-78
2022/07/11 10:10:03;;;;;;;2.88;0.80;;;;;;;22.16;32.92;94958.59;5055607;28;20027;-77
2022/07/11 10:12:31;;;;;;;2.33;1.00;;;;;;;22.20;31.55;94968.59;5072331;28;20036;-78
2022/07/11 10:14:57;;;;;;;3.63;1.23;;;;;;;22.20;31.50;94971.25;5055873;28;20021;-77
2022/07/11 10:17:34;;;;;;;2.10;0.90;;;;;;;22.20;32.20;94978.38;5072029;28;20040;-77
2022/07/11 10:20:11;;;;;;;5.18;1.00;;;;;;;22.19;32.33;94974.91;5056455;28;20108;-78
2022/07/11 10:22:56;;;;;;;2.72;1.05;;;;;;;22.10;30.91;94973.41;5072114;28;20037;-77
2022/07/11 10:25:35;;;;;;;7.40;1.10;;;;;;;22.18;32.33;94980.41;5056480;28;20024;-77
2022/07/11 10:28:13;;;;;;;1.77;0.93;;;;;;;22.18;31.96;94975.13;5055499;28;20048;-77
2022/07/11 10:30:45;;;;;;;2.45;1.05;;;;;;;22.02;32.67;94981.50;5073118;28;20028;-77
2022/07/11 10:33:10;;;;;;;1.92;0.82;;;;;;;22.08;32.02;94960.38;5073277;28;20120;-77
2022/07/11 10:35:36;;;;;;;2.72;1.00;;;;;;;22.07;32.26;94964.03;5055174;28;20147;-77
2022/07/11 10:38:04;;;;;;;2.22;0.90;;;;;;;22.06;33.03;94972.16;5038337;28;20117;-77
2022/07/11 10:40:43;;;;;;;3.80;0.90;;;;;;;22.12;32.75;94987.28;5055081;28;20024;-77
2022/07/11 10:43:09;;;;;;;2.22;1.00;;;;;;;22.12;32.39;94979.34;5071590;28;20048;-78
2022/07/11 10:46:06;;;;;;;2.78;1.00;;;;;;;22.18;33.69;94970.66;5055000;28;20025;-78
2022/07/11 10:48:33;;;;;;;1.65;1.00;;;;;;;22.18;31.91;94964.53;5072950;28;20043;-78
2022/07/11 10:51:14;;;;;;;5.03;1.35;;;;;;;22.17;31.81;94974.25;5038399;28;20028;-77
2022/07/11 10:53:45;;;;;;;3.38;1.05;;;;;;;22.16;32.12;94977.09;5055741;28;20043;-77
2022/07/11 10:56:18;;;;;;;1.27;0.80;;;;;;;22.24;31.75;94967.22;5054935;28;20027;-78
2022/07/11 10:58:44;;;;;;;2.72;1.30;;;;;;;22.24;31.52;94953.97;5054521;28;20055;-77
2022/07/11 11:01:11;;;;;;;2.65;0.95;;;;;;;22.39;31.65;94984.78;5054696;28;20456;-77
2022/07/11 11:03:36;;;;;;;2.42;1.00;;;;;;;22.46;31.62;94980.34;5054707;28;20032;-77
2022/07/11 11:06:03;;;;;;;2.08;0.90;;;;;;;22.51;31.09;94980.56;5054722;28;20504;-77
2022/07/11 11:08:38;;;;;;;1.80;1.00;;;;;;;22.40;31.29;94981.97;5054459;28;20048;-78
2022/07/11 11:11:22;;;;;;;3.35;1.00;;;;;;;22.45;31.71;94973.41;5071304;28;20025;-77
2022/07/11 11:14:16;;;;;;;2.75;1.10;;;;;;;22.55;31.32;94978.34;5071135;28;20106;-78
2022/07/11 11:16:42;;;;;;;3.10;1.40;;;;;;;22.46;30.85;94962.66;5070927;28;20029;-78
2022/07/11 11:19:07;;;;;;;2.70;1.00;;;;;;;22.54;30.98;94988.13;5054503;28;20512;-78
2022/07/11 11:21:33;;;;;;;2.78;1.13;;;;;;;22.53;30.71;94978.53;5054587;28;20036;-78
2022/07/11 11:24:06;;;;;;;2.28;0.98;;;;;;;22.53;31.53;94978.53;5054345;28;20036;-78
2022/07/11 11:26:50;;;;;;;2.13;0.90;;;;;;;22.51;31.12;94985.84;5072067;28;20027;-77
2022/07/11 11:29:23;;;;;;;2.75;0.90;;;;;;;22.50;30.53;94982.41;5070767;28;20032;-78
2022/07/11 11:31:54;;;;;;;3.05;1.10;;;;;;;22.32;31.02;94965.44;5054148;28;20025;-77
2022/07/11 11:34:19;;;;;;;3.28;1.00;;;;;;;22.32;31.00;94973.38;5054323;28;20037;-77
2022/07/11 11:36:52;;;;;;;1.85;1.00;;;;;;;22.37;32.00;94984.16;5054267;28;20082;-77
2022/07/11 11:39:31;;;;;;;3.85;1.00;;;;;;;22.45;31.25;94991.94;5070707;28;20043;-78
2022/07/11 11:42:02;;;;;;;3.33;1.20;;;;;;;22.57;31.35;94998.31;5053979;28;20476;-77
2022/07/11 11:44:27;;;;;;;1.55;0.90;;;;;;;22.54;30.32;94985.50;5070333;28;20044;-77
2022/07/11 11:46:52;;;;;;;2.28;0.90;;;;;;;22.49;30.49;94979.97;5053735;28;20464;-77
2022/07/11 11:49:18;;;;;;;2.28;0.95;;;;;;;22.38;30.71;94981.31;5053621;28;20033;-77
2022/07/11 11:51:44;;;;;;;2.70;1.10;;;;;;;22.27;30.38;94977.41;5070299;28;20574;-78
2022/07/11 11:54:10;;;;;;;2.72;1.23;;;;;;;22.28;31.27;94965.78;5053688;28;20032;-77
2022/07/11 11:56:36;;;;;;;2.67;1.10;;;;;;;22.43;31.33;94978.09;5053564;28;20508;-77
2022/07/11 11:59:07;;;;;;;4.40;1.20;;;;;;;22.37;30.72;94990.28;5053604;28;20612;-77
2022/07/11 12:01:37;;;;;;;2.58;1.10;;;;;;;22.03;30.30;94972.53;5037390;28;20055;-77